sensor_id;sensor_type;location;lat;lon;timestamp;pressure;altitude;pressure_sealevel;temperature;humidity
1652;BME280;823;49.028;8.454;2022-10-28T00:02:28;101097.59;;;17.35;63.05
1652;BME280;823;49.028;8.454;2022-10-28T00:07:28;101100.97;;;17.37;63.08
1652;BME280;823;49.028;8.454;2022-10-28T00:12:29;101103.59;;;17.37;62.64
1652;BME280;823;49.028;8.454;2022-10-28T00:17:29;101099.44;;;17.33;63.14
1652;BME280;823;49.028;8.454;2022-10-28T00:22:30;101099.28;;;17.36;62.81
1652;BME280;823;49.028;8.454;2022-10-28T00:27:30;101106.19;;;17.37;62.80
1652;BME280;823;49.028;8.454;2022-10-28T00:32:32;101103.59;;;17.37;63.00
1652;BME280;823;49.028;8.454;2022-10-28T00:37:32;101101.13;;;17.34;62.95
1652;BME280;823;49.028;8.454;2022-10-28T00:42:32;101109.66;;;17.38;62.92
1652;BME280;823;49.028;8.454;2022-10-28T00:53:14;101112.69;;;17.47;62.90
1652;BME280;823;49.028;8.454;2022-10-28T00:58:18;101105.91;;;17.43;63.40
1652;BME280;823;49.028;8.454;2022-10-28T01:03:20;101111.06;;;17.45;63.44
1652;BME280;823;49.028;8.454;2022-10-28T01:08:20;101104.75;;;17.49;63.45
1652;BME280;823;49.028;8.454;2022-10-28T01:13:43;101095.56;;;17.58;63.11
1652;BME280;823;49.028;8.454;2022-10-28T01:24:18;101084.03;;;17.62;63.48
1652;BME280;823;49.028;8.454;2022-10-28T01:29:48;101090.56;;;17.70;63.41
1652;BME280;823;49.028;8.454;2022-10-28T01:45:29;101098.25;;;17.74;63.21
1652;BME280;823;49.028;8.454;2022-10-28T01:50:47;101099.94;;;17.75;63.21
1652;BME280;823;49.028;8.454;2022-10-28T01:55:52;101098.25;;;17.74;62.92
1652;BME280;823;49.028;8.454;2022-10-28T02:00:55;101090.47;;;17.72;63.02
1652;BME280;823;49.028;8.454;2022-10-28T02:05:59;101077.25;;;17.75;63.29
1652;BME280;823;49.028;8.454;2022-10-28T02:16:56;101071.75;;;17.80;63.24
1652;BME280;823;49.028;8.454;2022-10-28T02:27:35;101082.69;;;17.88;62.93
1652;BME280;823;49.028;8.454;2022-10-28T02:32:44;101075.47;;;17.93;62.97
1652;BME280;823;49.028;8.454;2022-10-28T02:37:46;101077.75;;;17.99;62.63
1652;BME280;823;49.028;8.454;2022-10-28T02:42:54;101061.28;;;17.97;62.42
1652;BME280;823;49.028;8.454;2022-10-28T02:48:02;101051.56;;;17.99;62.21
1652;BME280;823;49.028;8.454;2022-10-28T02:53:10;101056.72;;;18.01;61.89
1652;BME280;823;49.028;8.454;2022-10-28T02:58:13;101041.97;;;18.00;62.02
1652;BME280;823;49.028;8.454;2022-10-28T03:03:13;101030.56;;;18.01;62.03
1652;BME280;823;49.028;8.454;2022-10-28T03:08:13;101019.16;;;18.02;61.83
1652;BME280;823;49.028;8.454;2022-10-28T03:13:14;101020.84;;;18.03;61.93
1652;BME280;823;49.028;8.454;2022-10-28T03:18:14;101027.94;;;18.01;62.04
1652;BME280;823;49.028;8.454;2022-10-28T03:23:14;101043.63;;;18.01;61.82
1652;BME280;823;49.028;8.454;2022-10-28T03:28:15;101051.56;;;17.99;61.78
1652;BME280;823;49.028;8.454;2022-10-28T03:33:15;101040.44;;;17.96;61.82
1652;BME280;823;49.028;8.454;2022-10-28T03:38:15;101035.84;;;17.83;62.08
1652;BME280;823;49.028;8.454;2022-10-28T03:43:16;101021.53;;;17.73;62.16
1652;BME280;823;49.028;8.454;2022-10-28T03:48:16;101020.13;;;17.83;61.60
1652;BME280;823;49.028;8.454;2022-10-28T03:53:17;101010.88;;;17.94;61.26
1652;BME280;823;49.028;8.454;2022-10-28T03:58:17;100996.31;;;17.88;61.36
1652;BME280;823;49.028;8.454;2022-10-28T04:03:19;100981.81;;;17.82;61.22
1652;BME280;823;49.028;8.454;2022-10-28T04:08:20;100981.81;;;17.98;60.55
1652;BME280;823;49.028;8.454;2022-10-28T04:13:20;100967.22;;;17.94;60.01
1652;BME280;823;49.028;8.454;2022-10-28T04:18:21;100971.47;;;18.13;59.63
1652;BME280;823;49.028;8.454;2022-10-28T04:23:21;100968.41;;;18.20;59.24
1652;BME280;823;49.028;8.454;2022-10-28T04:28:21;100976.53;;;18.16;59.30
1652;BME280;823;49.028;8.454;2022-10-28T04:33:25;100991.28;;;18.01;59.84
1652;BME280;823;49.028;8.454;2022-10-28T04:38:25;100982.09;;;17.94;59.96
1652;BME280;823;49.028;8.454;2022-10-28T04:43:26;100990.25;;;17.87;60.17
1652;BME280;823;49.028;8.454;2022-10-28T04:48:26;100996.16;;;17.75;60.61
1652;BME280;823;49.028;8.454;2022-10-28T04:53:26;101001.69;;;17.69;60.52
1652;BME280;823;49.028;8.454;2022-10-28T04:58:27;100987.97;;;17.48;61.05
1652;BME280;823;49.028;8.454;2022-10-28T05:03:27;100997.16;;;17.39;61.16
1652;BME280;823;49.028;8.454;2022-10-28T05:08:28;100997.00;;;17.42;61.32
1652;BME280;823;49.028;8.454;2022-10-28T05:13:28;101018.84;;;17.41;61.19
1652;BME280;823;49.028;8.454;2022-10-28T05:18:28;101011.59;;;17.46;60.90
1652;BME280;823;49.028;8.454;2022-10-28T05:23:29;101005.00;;;17.39;61.02
1652;BME280;823;49.028;8.454;2022-10-28T05:28:29;100997.63;;;17.30;61.56
1652;BME280;823;49.028;8.454;2022-10-28T05:33:29;100986.72;;;17.22;62.19
1652;BME280;823;49.028;8.454;2022-10-28T05:38:30;100989.34;;;17.22;61.96
1652;BME280;823;49.028;8.454;2022-10-28T05:43:30;100983.72;;;17.12;61.90
1652;BME280;823;49.028;8.454;2022-10-28T05:48:31;100987.44;;;17.08;61.89
1652;BME280;823;49.028;8.454;2022-10-28T05:53:31;100984.03;;;16.88;62.31
1652;BME280;823;49.028;8.454;2022-10-28T05:58:31;100997.72;;;16.93;62.32
1652;BME280;823;49.028;8.454;2022-10-28T06:03:32;101000.41;;;16.92;62.70
1652;BME280;823;49.028;8.454;2022-10-28T06:08:32;100990.13;;;16.89;62.59
1652;BME280;823;49.028;8.454;2022-10-28T06:13:32;100992.06;;;16.83;62.72
1652;BME280;823;49.028;8.454;2022-10-28T06:18:33;100994.63;;;16.85;62.20
1652;BME280;823;49.028;8.454;2022-10-28T06:23:33;100994.69;;;16.83;62.58
1652;BME280;823;49.028;8.454;2022-10-28T06:28:33;101014.59;;;16.86;62.71
1652;BME280;823;49.028;8.454;2022-10-28T06:33:34;101024.28;;;16.84;62.54
1652;BME280;823;49.028;8.454;2022-10-28T06:38:34;101020.13;;;16.80;62.59
1652;BME280;823;49.028;8.454;2022-10-28T06:43:35;101024.28;;;16.84;62.88
1652;BME280;823;49.028;8.454;2022-10-28T06:48:35;101020.47;;;16.91;63.13
1652;BME280;823;49.028;8.454;2022-10-28T06:53:35;101039.00;;;17.04;62.88
1652;BME280;823;49.028;8.454;2022-10-28T06:58:36;101048.25;;;17.11;62.88
1652;BME280;823;49.028;8.454;2022-10-28T07:03:36;101045.06;;;17.22;62.79
1652;BME280;823;49.028;8.454;2022-10-28T07:08:36;101054.22;;;17.31;62.59
1652;BME280;823;49.028;8.454;2022-10-28T07:13:37;101049.59;;;17.36;62.44
1652;BME280;823;49.028;8.454;2022-10-28T07:18:37;101059.75;;;17.42;62.38
1652;BME280;823;49.028;8.454;2022-10-28T07:23:37;101056.69;;;17.51;62.22
1652;BME280;823;49.028;8.454;2022-10-28T07:28:38;101058.03;;;17.59;62.28
1652;BME280;823;49.028;8.454;2022-10-28T07:33:38;101055.88;;;17.67;61.92
1652;BME280;823;49.028;8.454;2022-10-28T07:38:38;101056.53;;;17.70;61.83
1652;BME280;823;49.028;8.454;2022-10-28T07:43:39;101062.47;;;17.74;61.82
1652;BME280;823;49.028;8.454;2022-10-28T07:48:40;101064.09;;;17.77;61.79
1652;BME280;823;49.028;8.454;2022-10-28T07:53:41;101075.13;;;17.82;61.89
1652;BME280;823;49.028;8.454;2022-10-28T07:58:42;101070.59;;;17.85;61.94
1652;BME280;823;49.028;8.454;2022-10-28T08:03:43;101062.50;;;17.90;61.68
1652;BME280;823;49.028;8.454;2022-10-28T08:08:46;101066.44;;;17.99;61.87
1652;BME280;823;49.028;8.454;2022-10-28T08:13:47;101071.16;;;18.08;61.42
1652;BME280;823;49.028;8.454;2022-10-28T08:18:47;101069.25;;;18.12;61.51
1652;BME280;823;49.028;8.454;2022-10-28T08:23:47;101055.31;;;18.11;61.18
1652;BME280;823;49.028;8.454;2022-10-28T08:28:48;101052.25;;;18.03;61.56
1652;BME280;823;49.028;8.454;2022-10-28T08:33:49;101057.69;;;18.16;61.24
1652;BME280;823;49.028;8.454;2022-10-28T08:38:49;101058.44;;;18.34;60.62
1652;BME280;823;49.028;8.454;2022-10-28T08:49:19;101071.66;;;18.79;59.98
1652;BME280;823;49.028;8.454;2022-10-28T08:59:42;101079.59;;;19.09;58.72
1652;BME280;823;49.028;8.454;2022-10-28T09:04:45;101061.47;;;19.20;58.18
1652;BME280;823;49.028;8.454;2022-10-28T09:09:49;101054.16;;;19.26;57.88
1652;BME280;823;49.028;8.454;2022-10-28T09:15:14;101025.78;;;19.18;58.19
1652;BME280;823;49.028;8.454;2022-10-28T09:20:20;101056.06;;;19.38;57.94
1652;BME280;823;49.028;8.454;2022-10-28T09:36:13;101044.03;;;19.93;56.62
1652;BME280;823;49.028;8.454;2022-10-28T09:41:20;101068.84;;;20.02;56.61
1652;BME280;823;49.028;8.454;2022-10-28T09:46:24;101067.97;;;20.30;56.20
1652;BME280;823;49.028;8.454;2022-10-28T09:51:44;101051.66;;;20.39;56.15
1652;BME280;823;49.028;8.454;2022-10-28T09:56:46;101049.50;;;20.32;55.21
1652;BME280;823;49.028;8.454;2022-10-28T10:01:46;101070.81;;;20.54;54.86
1652;BME280;823;49.028;8.454;2022-10-28T10:07:01;101063.75;;;20.69;54.25
1652;BME280;823;49.028;8.454;2022-10-28T10:12:07;101055.38;;;20.77;54.90
1652;BME280;823;49.028;8.454;2022-10-28T10:17:12;101059.19;;;20.86;54.89
1652;BME280;823;49.028;8.454;2022-10-28T10:22:32;101056.41;;;21.02;54.25
1652;BME280;823;49.028;8.454;2022-10-28T10:27:33;101061.03;;;21.11;53.92
1652;BME280;823;49.028;8.454;2022-10-28T10:32:33;101055.38;;;21.17;53.27
1652;BME280;823;49.028;8.454;2022-10-28T10:37:34;101047.91;;;21.24;53.21
1652;BME280;823;49.028;8.454;2022-10-28T10:42:35;101042.94;;;21.32;52.85
1652;BME280;823;49.028;8.454;2022-10-28T10:47:36;101048.78;;;21.50;52.80
1652;BME280;823;49.028;8.454;2022-10-28T10:52:36;101051.84;;;21.70;52.86
1652;BME280;823;49.028;8.454;2022-10-28T10:57:37;101045.91;;;21.92;52.00
1652;BME280;823;49.028;8.454;2022-10-28T11:02:38;101034.41;;;22.06;51.59
1652;BME280;823;49.028;8.454;2022-10-28T11:07:44;101024.69;;;22.06;51.06
1652;BME280;823;49.028;8.454;2022-10-28T11:12:57;101027.38;;;22.31;50.91
1652;BME280;823;49.028;8.454;2022-10-28T11:18:03;101019.31;;;22.45;51.38
1652;BME280;823;49.028;8.454;2022-10-28T11:23:38;101007.19;;;22.67;51.20
1652;BME280;823;49.028;8.454;2022-10-28T11:39:45;100995.63;;;23.50;47.87
1652;BME280;823;49.028;8.454;2022-10-28T11:45:03;100997.41;;;23.72;47.03
1652;BME280;823;49.028;8.454;2022-10-28T11:50:25;100998.47;;;23.92;46.33
1652;BME280;823;49.028;8.454;2022-10-28T12:05:52;100988.75;;;24.48;44.03
1652;BME280;823;49.028;8.454;2022-10-28T12:11:25;100993.94;;;24.71;43.25
1652;BME280;823;49.028;8.454;2022-10-28T12:16:37;100997.75;;;24.45;44.10
1652;BME280;823;49.028;8.454;2022-10-28T12:22:12;100984.41;;;24.47;43.54
1652;BME280;823;49.028;8.454;2022-10-28T12:27:27;100965.38;;;24.53;44.00
1652;BME280;823;49.028;8.454;2022-10-28T12:32:32;100969.69;;;24.65;42.84
1652;BME280;823;49.028;8.454;2022-10-28T12:37:37;100956.66;;;24.74;43.51
1652;BME280;823;49.028;8.454;2022-10-28T12:42:50;100941.75;;;24.73;43.41
1652;BME280;823;49.028;8.454;2022-10-28T12:48:05;100941.53;;;24.64;43.06
1652;BME280;823;49.028;8.454;2022-10-28T12:58:49;100942.38;;;24.86;43.44
1652;BME280;823;49.028;8.454;2022-10-28T13:03:51;100944.38;;;24.94;43.33
1652;BME280;823;49.028;8.454;2022-10-28T13:09:03;100948.88;;;25.03;42.67
1652;BME280;823;49.028;8.454;2022-10-28T13:14:49;100936.84;;;25.20;43.02
1652;BME280;823;49.028;8.454;2022-10-28T13:30:33;100933.22;;;25.42;42.16
1652;BME280;823;49.028;8.454;2022-10-28T13:35:35;100927.34;;;25.39;42.60
1652;BME280;823;49.028;8.454;2022-10-28T13:50:47;100951.06;;;25.50;43.00
1652;BME280;823;49.028;8.454;2022-10-28T13:55:47;100937.13;;;25.48;43.73
1652;BME280;823;49.028;8.454;2022-10-28T14:00:48;100930.75;;;25.60;44.08
1652;BME280;823;49.028;8.454;2022-10-28T14:05:51;100933.28;;;25.62;44.26
1652;BME280;823;49.028;8.454;2022-10-28T14:11:11;100924.06;;;25.66;44.55
1652;BME280;823;49.028;8.454;2022-10-28T14:16:33;100930.06;;;25.68;44.58
1652;BME280;823;49.028;8.454;2022-10-28T14:21:48;100932.56;;;25.60;44.58
1652;BME280;823;49.028;8.454;2022-10-28T14:27:19;100928.78;;;25.62;45.12
1652;BME280;823;49.028;8.454;2022-10-28T14:48:42;100929.28;;;25.37;46.37
1652;BME280;823;49.028;8.454;2022-10-28T14:53:45;100937.88;;;25.29;46.29
1652;BME280;823;49.028;8.454;2022-10-28T14:58:46;100931.28;;;25.23;46.89
1652;BME280;823;49.028;8.454;2022-10-28T15:03:49;100924.88;;;25.16;46.96
1652;BME280;823;49.028;8.454;2022-10-28T15:08:52;100934.53;;;25.06;47.25
1652;BME280;823;49.028;8.454;2022-10-28T15:13:53;100927.53;;;24.95;48.03
1652;BME280;823;49.028;8.454;2022-10-28T15:18:53;100927.88;;;24.80;48.45
1652;BME280;823;49.028;8.454;2022-10-28T15:24:01;100921.81;;;24.69;48.97
1652;BME280;823;49.028;8.454;2022-10-28T15:29:01;100922.09;;;24.54;49.20
1652;BME280;823;49.028;8.454;2022-10-28T15:34:01;100925.78;;;24.42;50.05
1652;BME280;823;49.028;8.454;2022-10-28T15:39:06;100934.03;;;24.27;49.80
1652;BME280;823;49.028;8.454;2022-10-28T15:44:32;100925.69;;;24.11;50.34
1652;BME280;823;49.028;8.454;2022-10-28T15:49:34;100926.69;;;23.87;51.65
1652;BME280;823;49.028;8.454;2022-10-28T15:54:35;100936.19;;;23.67;52.06
1652;BME280;823;49.028;8.454;2022-10-28T15:59:35;100934.16;;;23.48;52.50
1652;BME280;823;49.028;8.454;2022-10-28T16:09:48;100943.88;;;23.13;53.51
1652;BME280;823;49.028;8.454;2022-10-28T16:14:55;100940.38;;;22.90;54.26
1652;BME280;823;49.028;8.454;2022-10-28T16:19:59;100937.09;;;22.75;54.65
1652;BME280;823;49.028;8.454;2022-10-28T16:25:01;100950.13;;;22.54;55.23
1652;BME280;823;49.028;8.454;2022-10-28T16:30:01;100942.53;;;22.50;55.68
1652;BME280;823;49.028;8.454;2022-10-28T16:35:03;100940.72;;;22.39;55.63
1652;BME280;823;49.028;8.454;2022-10-28T16:40:04;100941.13;;;22.33;55.92
1652;BME280;823;49.028;8.454;2022-10-28T16:45:06;100945.41;;;22.22;56.01
1652;BME280;823;49.028;8.454;2022-10-28T16:50:07;100959.19;;;22.02;56.69
1652;BME280;823;49.028;8.454;2022-10-28T16:55:15;100956.66;;;22.00;56.44
1652;BME280;823;49.028;8.454;2022-10-28T17:00:15;100963.97;;;21.84;56.95
1652;BME280;823;49.028;8.454;2022-10-28T17:05:18;100972.13;;;21.68;57.30
1652;BME280;823;49.028;8.454;2022-10-28T17:10:19;100968.84;;;21.51;57.81
1652;BME280;823;49.028;8.454;2022-10-28T17:15:19;100987.59;;;21.47;57.62
1652;BME280;823;49.028;8.454;2022-10-28T17:20:20;100984.88;;;21.35;58.08
1652;BME280;823;49.028;8.454;2022-10-28T17:25:20;100987.31;;;21.25;57.96
1652;BME280;823;49.028;8.454;2022-10-28T17:30:20;100986.97;;;21.17;58.69
1652;BME280;823;49.028;8.454;2022-10-28T17:35:21;100987.50;;;21.09;59.83
1652;BME280;823;49.028;8.454;2022-10-28T17:40:22;100997.78;;;21.13;59.85
1652;BME280;823;49.028;8.454;2022-10-28T17:45:22;100995.81;;;21.16;59.49
1652;BME280;823;49.028;8.454;2022-10-28T17:50:22;101012.03;;;21.10;59.47
1652;BME280;823;49.028;8.454;2022-10-28T17:55:23;101013.34;;;21.03;59.55
1652;BME280;823;49.028;8.454;2022-10-28T18:00:23;101013.13;;;20.93;59.90
1652;BME280;823;49.028;8.454;2022-10-28T18:05:24;101007.88;;;20.93;60.02
1652;BME280;823;49.028;8.454;2022-10-28T18:10:25;101016.19;;;20.87;59.85
1652;BME280;823;49.028;8.454;2022-10-28T18:15:25;101016.47;;;20.82;59.57
1652;BME280;823;49.028;8.454;2022-10-28T18:20:25;101017.22;;;20.71;59.61
1652;BME280;823;49.028;8.454;2022-10-28T18:25:25;101013.34;;;20.63;59.67
1652;BME280;823;49.028;8.454;2022-10-28T18:30:26;101024.38;;;20.55;59.80
1652;BME280;823;49.028;8.454;2022-10-28T18:35:26;101016.25;;;20.45;60.14
1652;BME280;823;49.028;8.454;2022-10-28T18:40:27;101031.25;;;20.43;60.33
1652;BME280;823;49.028;8.454;2022-10-28T18:45:27;101020.41;;;20.35;60.39
1652;BME280;823;49.028;8.454;2022-10-28T18:50:28;101018.69;;;20.34;60.36
1652;BME280;823;49.028;8.454;2022-10-28T18:55:31;101014.06;;;20.24;60.97
1652;BME280;823;49.028;8.454;2022-10-28T19:00:31;101034.50;;;20.19;60.69
1652;BME280;823;49.028;8.454;2022-10-28T19:05:34;101028.78;;;20.13;60.88
1652;BME280;823;49.028;8.454;2022-10-28T19:10:34;101021.59;;;20.02;61.39
1652;BME280;823;49.028;8.454;2022-10-28T19:15:35;101024.97;;;20.04;61.22
1652;BME280;823;49.028;8.454;2022-10-28T19:20:41;101031.25;;;20.01;61.08
1652;BME280;823;49.028;8.454;2022-10-28T19:25:41;101030.06;;;19.93;61.19
1652;BME280;823;49.028;8.454;2022-10-28T19:30:41;101026.78;;;19.89;61.42
1652;BME280;823;49.028;8.454;2022-10-28T19:35:41;101024.44;;;19.84;61.56
1652;BME280;823;49.028;8.454;2022-10-28T19:40:42;101021.22;;;19.79;61.50
1652;BME280;823;49.028;8.454;2022-10-28T19:45:42;101016.16;;;19.76;61.54
1652;BME280;823;49.028;8.454;2022-10-28T19:50:48;101021.41;;;19.76;61.70
1652;BME280;823;49.028;8.454;2022-10-28T19:55:54;101030.41;;;19.72;61.68
1652;BME280;823;49.028;8.454;2022-10-28T20:01:05;101032.59;;;19.80;61.42
1652;BME280;823;49.028;8.454;2022-10-28T20:06:11;101039.69;;;19.78;61.30
1652;BME280;823;49.028;8.454;2022-10-28T20:11:17;101041.94;;;19.69;61.14
1652;BME280;823;49.028;8.454;2022-10-28T20:16:22;101037.03;;;19.63;61.40
1652;BME280;823;49.028;8.454;2022-10-28T20:21:28;101052.78;;;19.63;61.30
1652;BME280;823;49.028;8.454;2022-10-28T20:26:31;101060.31;;;19.55;61.21
1652;BME280;823;49.028;8.454;2022-10-28T20:31:31;101057.94;;;19.50;61.21
1652;BME280;823;49.028;8.454;2022-10-28T20:36:34;101064.50;;;19.43;61.44
1652;BME280;823;49.028;8.454;2022-10-28T20:41:36;101079.00;;;19.34;61.70
1652;BME280;823;49.028;8.454;2022-10-28T20:46:37;101068.03;;;19.28;61.74
1652;BME280;823;49.028;8.454;2022-10-28T20:51:37;101071.09;;;19.20;61.81
1652;BME280;823;49.028;8.454;2022-10-28T20:56:38;101073.81;;;19.18;61.61
1652;BME280;823;49.028;8.454;2022-10-28T21:01:39;101072.31;;;19.14;62.02
1652;BME280;823;49.028;8.454;2022-10-28T21:06:39;101067.59;;;19.05;62.85
1652;BME280;823;49.028;8.454;2022-10-28T21:11:44;101067.81;;;19.16;62.68
1652;BME280;823;49.028;8.454;2022-10-28T21:16:44;101053.94;;;19.14;62.42
1652;BME280;823;49.028;8.454;2022-10-28T21:21:44;101065.34;;;19.13;62.24
1652;BME280;823;49.028;8.454;2022-10-28T21:26:45;101082.28;;;19.08;62.16
1652;BME280;823;49.028;8.454;2022-10-28T21:31:45;101088.75;;;19.02;61.88
1652;BME280;823;49.028;8.454;2022-10-28T21:36:45;101096.19;;;18.94;62.09
1652;BME280;823;49.028;8.454;2022-10-28T21:41:46;101114.63;;;18.92;61.94
1652;BME280;823;49.028;8.454;2022-10-28T21:46:46;101118.59;;;18.83;61.93
1652;BME280;823;49.028;8.454;2022-10-28T21:51:47;101126.78;;;18.77;62.10
1652;BME280;823;49.028;8.454;2022-10-28T21:56:48;101136.84;;;18.69;62.37
1652;BME280;823;49.028;8.454;2022-10-28T22:01:49;101145.88;;;18.63;62.48
1652;BME280;823;49.028;8.454;2022-10-28T22:06:49;101133.31;;;18.54;62.05
1652;BME280;823;49.028;8.454;2022-10-28T22:11:49;101135.59;;;18.44;62.25
1652;BME280;823;49.028;8.454;2022-10-28T22:16:50;101139.13;;;18.43;62.15
1652;BME280;823;49.028;8.454;2022-10-28T22:21:50;101141.16;;;18.38;62.20
1652;BME280;823;49.028;8.454;2022-10-28T22:26:50;101142.06;;;18.37;62.27
1652;BME280;823;49.028;8.454;2022-10-28T22:31:51;101136.84;;;18.37;62.83
1652;BME280;823;49.028;8.454;2022-10-28T22:36:51;101136.31;;;18.30;62.78
1652;BME280;823;49.028;8.454;2022-10-28T22:41:51;101140.88;;;18.27;62.53
1652;BME280;823;49.028;8.454;2022-10-28T22:46:52;101131.06;;;18.30;62.88
1652;BME280;823;49.028;8.454;2022-10-28T22:51:52;101130.16;;;18.31;62.54
1652;BME280;823;49.028;8.454;2022-10-28T22:56:52;101119.59;;;18.33;62.48
1652;BME280;823;49.028;8.454;2022-10-28T23:01:52;101126.53;;;18.34;62.63
1652;BME280;823;49.028;8.454;2022-10-28T23:06:53;101121.47;;;18.31;62.53
1652;BME280;823;49.028;8.454;2022-10-28T23:11:53;101116.41;;;18.28;62.08
1652;BME280;823;49.028;8.454;2022-10-28T23:16:53;101120.09;;;18.24;62.18
1652;BME280;823;49.028;8.454;2022-10-28T23:21:54;101129.28;;;18.15;61.97
1652;BME280;823;49.028;8.454;2022-10-28T23:26:54;101120.22;;;18.04;61.51
1652;BME280;823;49.028;8.454;2022-10-28T23:31:54;101118.03;;;17.79;61.71
1652;BME280;823;49.028;8.454;2022-10-28T23:36:55;101115.91;;;17.86;62.25
1652;BME280;823;49.028;8.454;2022-10-28T23:41:55;101120.94;;;17.91;62.49
1652;BME280;823;49.028;8.454;2022-10-28T23:46:55;101122.00;;;17.86;62.59
1652;BME280;823;49.028;8.454;2022-10-28T23:51:56;101110.09;;;17.81;62.48
1652;BME280;823;49.028;8.454;2022-10-28T23:56:56;101098.63;;;17.83;62.40
